Time;durP1;ratioP1;P1;durP2;ratioP2;P2;SDS_P1;SDS_P2;PMS_P1;PMS_P2;Temp;Humidity;BMP_temperature;BMP_pressure;BME280_temperature;BME280_humidity;BME280_pressure;Samples;Min_cycle;Max_cycle;Signal;HPM_P1;HPM_P2
2020/12/27 04:16:53;;;;;;;;;;;;;;;20.22;40.34;101349.88;5017521;28;1348;-42
2020/12/27 04:19:18;;;;;;;;;;;;;;;19.74;41.58;101361.34;5002482;28;1208;-42
2020/12/27 04:22:02;;;;;;;;;;;;;;;19.22;42.89;101364.19;5001575;28;1340;-47
2020/12/27 04:24:38;;;;;;;;;;;;;;;19.85;41.31;101378.72;5019035;28;1136;-42
2020/12/27 04:27:07;;;;;;;;;;;;;;;20.88;39.34;101359.69;5002456;28;1906;-42
2020/12/27 04:29:32;;;;;;;;;;;;;;;20.64;39.32;101359.56;5018623;28;1146;-42
2020/12/27 04:31:58;;;;;;;;;;;;;;;20.38;39.93;101354.19;5002661;28;1141;-47
2020/12/27 04:34:49;;;;;;;;;;;;;;;19.91;41.18;101364.63;5000466;28;1241;-42
2020/12/27 04:37:15;;;;;;;;;;;;;;;19.60;41.61;101370.22;5001584;28;1095;-42
2020/12/27 04:39:50;;;;;;;;;;;;;;;19.71;41.74;101373.75;5018398;28;1341;-42
2020/12/27 04:42:16;;;;;;;;;;;;;;;20.67;39.73;101372.78;5002306;28;1153;-56
2020/12/27 04:44:54;;;;;;;;;;;;;;;20.72;39.43;101363.66;5001750;28;1262;-44
2020/12/27 04:47:27;;;;;;;;;;;;;;;20.27;40.32;101375.53;5002331;28;1918;-60
2020/12/27 04:50:11;;;;;;;;;;;;;;;19.82;41.08;101345.09;5001808;28;1027;-44
2020/12/27 04:52:37;;;;;;;;;;;;;;;19.40;42.24;101356.47;5001846;28;1096;-60
2020/12/27 04:55:16;;;;;;;;;;;;;;;19.97;41.13;101352.47;4987522;28;1320;-60
2020/12/27 04:58:08;;;;;;;;;;;;;;;20.72;38.74;101342.41;5003669;28;1097;-50
2020/12/27 05:00:59;;;;;;;;;;;;;;;20.41;39.50;101334.31;5018910;28;1011;-61
2020/12/27 05:03:55;;;;;;;;;;;;;;;20.33;39.75;101329.38;5018673;28;1008;-46
2020/12/27 05:06:21;;;;;;;;;;;;;;;19.59;41.35;101329.94;5000993;28;1922;-46
2020/12/27 05:08:47;;;;;;;;;;;;;;;19.48;41.78;101323.63;4985369;28;1271;-46
2020/12/27 05:11:16;;;;;;;;;;;;;;;20.54;39.62;101320.94;5001906;28;1277;-44
2020/12/27 05:13:45;;;;;;;;;;;;;;;20.43;39.87;101329.31;5017748;28;1368;-44
2020/12/27 05:16:18;;;;;;;;;;;;;;;20.15;40.25;101323.38;5001326;28;1599;-48
2020/12/27 05:18:51;;;;;;;;;;;;;;;20.04;40.32;101332.03;5001234;28;1287;-61
2020/12/27 05:21:22;;;;;;;;;;;;;;;19.34;41.75;101330.84;4997541;28;1328;-59
2020/12/27 05:23:49;;;;;;;;;;;;;;;19.85;40.85;101320.78;4981976;28;1120;-63
2020/12/27 05:26:27;;;;;;;;;;;;;;;20.71;39.15;101324.16;4982128;28;1963;-60
2020/12/27 05:29:03;;;;;;;;;;;;;;;20.26;39.97;101312.28;4997804;28;1272;-57
2020/12/27 05:31:45;;;;;;;;;;;;;;;20.20;40.07;101332.75;4981783;28;1444;-58
2020/12/27 05:34:29;;;;;;;;;;;;;;;19.47;41.78;101351.50;4998206;28;662;-58
2020/12/27 05:37:14;;;;;;;;;;;;;;;20.07;40.61;101339.72;5015766;28;917;-49
2020/12/27 05:39:57;;;;;;;;;;;;;;;20.70;38.59;101344.63;5003273;28;732;-51
2020/12/27 05:42:55;;;;;;;;;;;;;;;20.18;40.20;101355.13;4974271;28;1128;-44
2020/12/27 05:45:20;;;;;;;;;;;;;;;19.87;40.62;101348.94;5017189;28;1391;-44
2020/12/27 05:47:49;;;;;;;;;;;;;;;19.42;41.77;101360.59;5017351;28;1981;-57
2020/12/27 05:50:17;;;;;;;;;;;;;;;19.22;42.24;101366.16;5017619;28;1007;-57
2020/12/27 05:52:47;;;;;;;;;;;;;;;20.33;39.88;101368.84;5018471;28;776;-44
2020/12/27 05:55:17;;;;;;;;;;;;;;;20.50;39.33;101368.47;5000505;28;1195;-49
2020/12/27 05:57:43;;;;;;;;;;;;;;;20.29;39.89;101372.47;5017828;28;784;-52
2020/12/27 06:00:12;;;;;;;;;;;;;;;20.11;39.94;101380.28;5001101;28;1156;-47
2020/12/27 06:02:58;;;;;;;;;;;;;;;19.16;42.40;101384.63;4985939;28;1159;-46
2020/12/27 06:05:27;;;;;;;;;;;;;;;20.54;39.40;101382.56;4999763;28;1198;-52
2020/12/27 06:07:55;;;;;;;;;;;;;;;21.19;38.13;101385.13;5000487;28;2041;-56
2020/12/27 06:10:20;;;;;;;;;;;;;;;21.46;37.40;101385.72;4999723;28;1206;-47
2020/12/27 06:13:12;;;;;;;;;;;;;;;20.81;38.96;101390.41;4999597;28;1167;-60
2020/12/27 06:15:46;;;;;;;;;;;;;;;20.46;39.55;101383.16;5016455;28;1326;-45
2020/12/27 06:18:30;;;;;;;;;;;;;;;19.61;41.44;101395.88;5017596;28;629;-62
2020/12/27 06:21:16;;;;;;;;;;;;;;;19.46;41.71;101394.81;5002403;28;1015;-46
2020/12/27 06:23:47;;;;;;;;;;;;;;;19.37;42.05;101392.88;5000358;28;1298;-61
2020/12/27 06:26:14;;;;;;;;;;;;;;;19.33;42.06;101406.38;4984357;28;1163;-46
2020/12/27 06:29:00;;;;;;;;;;;;;;;19.86;41.19;101405.22;5017168;28;1005;-59
2020/12/27 06:31:32;;;;;;;;;;;;;;;20.82;39.06;101397.59;5000096;28;1246;-49
2020/12/27 06:34:23;;;;;;;;;;;;;;;20.78;38.98;101410.34;4987287;28;1311;-49
2020/12/27 06:36:54;;;;;;;;;;;;;;;20.36;40.07;101428.22;4996012;28;1210;-48
2020/12/27 06:39:48;;;;;;;;;;;;;;;19.91;40.80;101424.50;4997595;28;1180;-60
2020/12/27 06:42:32;;;;;;;;;;;;;;;19.29;42.25;101416.31;4997264;28;963;-60
2020/12/27 06:45:30;;;;;;;;;;;;;;;20.51;39.52;101419.88;4999824;28;1152;-47
2020/12/27 06:48:29;;;;;;;;;;;;;;;20.51;39.46;101425.38;4999900;28;1995;-59
2020/12/27 06:51:10;;;;;;;;;;;;;;;20.24;40.32;101434.06;4999287;28;1334;-58
2020/12/27 06:53:36;;;;;;;;;;;;;;;19.77;41.28;101438.06;4999699;28;1162;-45
2020/12/27 06:56:10;;;;;;;;;;;;;;;19.52;41.83;101439.75;4999803;28;1155;-61
2020/12/27 06:59:02;;;;;;;;;;;;;;;19.71;41.41;101442.75;5016633;28;1057;-60
2020/12/27 07:01:29;;;;;;;;;;;;;;;20.77;39.29;101439.06;4999632;28;733;-61
2020/12/27 07:04:11;;;;;;;;;;;;;;;20.49;39.62;101443.34;5016966;28;808;-46
2020/12/27 07:06:43;;;;;;;;;;;;;;;20.26;40.29;101439.31;5016190;28;1973;-46
2020/12/27 07:09:08;;;;;;;;;;;;;;;19.73;41.37;101432.28;5017225;28;1093;-57
2020/12/27 07:11:34;;;;;;;;;;;;;;;19.43;41.96;101431.22;5016980;28;848;-56
2020/12/27 07:13:59;;;;;;;;;;;;;;;19.60;41.98;101432.84;5016382;28;795;-59
2020/12/27 07:16:42;;;;;;;;;;;;;;;20.58;39.61;101430.59;5016658;28;1235;-59
2020/12/27 07:19:07;;;;;;;;;;;;;;;20.51;39.60;101430.91;5016455;28;807;-47
2020/12/27 07:21:35;;;;;;;;;;;;;;;20.28;40.12;101426.88;4998823;28;1036;-52
2020/12/27 07:24:13;;;;;;;;;;;;;;;19.98;40.84;101411.28;5016608;28;751;-57
2020/12/27 07:26:41;;;;;;;;;;;;;;;19.29;42.44;101402.53;5016256;28;1914;-50
2020/12/27 07:29:07;;;;;;;;;;;;;;;19.83;41.51;101410.19;5016590;28;866;-61
2020/12/27 07:31:33;;;;;;;;;;;;;;;20.81;39.26;101411.69;5016804;28;748;-53
2020/12/27 07:33:58;;;;;;;;;;;;;;;20.51;39.61;101408.81;5016224;28;844;-49
2020/12/27 07:36:23;;;;;;;;;;;;;;;20.24;40.28;101408.41;4998921;28;953;-49
2020/12/27 07:39:21;;;;;;;;;;;;;;;19.82;41.05;101404.97;4999164;28;752;-60
2020/12/27 07:41:47;;;;;;;;;;;;;;;19.27;42.55;101399.22;4962350;28;1391;-58
2020/12/27 07:44:13;;;;;;;;;;;;;;;20.54;39.83;101390.00;4983084;28;1287;-58
2020/12/27 07:46:39;;;;;;;;;;;;;;;21.23;38.44;101403.91;5016515;28;1914;-60
2020/12/27 07:49:07;;;;;;;;;;;;;;;20.56;39.57;101410.72;5015963;28;812;-49
2020/12/27 07:51:32;;;;;;;;;;;;;;;20.38;39.99;101409.41;4998767;28;957;-53
2020/12/27 07:53:58;;;;;;;;;;;;;;;19.81;41.40;101395.84;4998973;28;748;-55
2020/12/27 07:56:24;;;;;;;;;;;;;;;19.12;42.97;101409.13;4998223;28;831;-48
2020/12/27 07:58:50;;;;;;;;;;;;;;;19.79;41.62;101411.84;5016876;28;760;-48
2020/12/27 08:01:19;;;;;;;;;;;;;;;20.76;39.65;101406.19;5016516;28;799;-57
2020/12/27 08:03:45;;;;;;;;;;;;;;;20.40;40.16;101406.38;4998452;28;1270;-50
2020/12/27 08:06:15;;;;;;;;;;;;;;;20.20;40.57;101396.25;5016151;28;1007;-47
2020/12/27 08:08:40;;;;;;;;;;;;;;;19.80;41.61;101401.66;4998768;28;1902;-49
2020/12/27 08:11:12;;;;;;;;;;;;;;;19.39;42.42;101388.75;5015877;28;1188;-53
2020/12/27 08:13:38;;;;;;;;;;;;;;;19.59;42.12;101381.53;4998757;28;1220;-57
2020/12/27 08:16:03;;;;;;;;;;;;;;;20.51;40.07;101389.47;4998608;28;1123;-49
2020/12/27 08:18:29;;;;;;;;;;;;;;;20.39;40.24;101393.69;4998265;28;1271;-56
2020/12/27 08:20:54;;;;;;;;;;;;;;;20.28;40.51;101387.38;5016010;28;968;-47
2020/12/27 08:23:20;;;;;;;;;;;;;;;19.95;40.86;101384.22;5016175;28;745;-47
2020/12/27 08:25:45;;;;;;;;;;;;;;;19.36;42.65;101383.75;5015752;28;775;-47
2020/12/27 08:28:11;;;;;;;;;;;;;;;20.10;41.25;101392.44;5016189;28;1910;-46
2020/12/27 08:30:37;;;;;;;;;;;;;;;20.94;39.26;101385.34;5016213;28;735;-46
2020/12/27 08:33:03;;;;;;;;;;;;;;;20.38;40.20;101386.50;5016101;28;764;-45
2020/12/27 08:35:28;;;;;;;;;;;;;;;20.42;40.37;101374.59;5017709;28;1016;-49
2020/12/27 08:38:20;;;;;;;;;;;;;;;19.78;41.60;101374.31;5019765;28;973;-50
2020/12/27 08:40:46;;;;;;;;;;;;;;;19.07;43.38;101387.13;5014604;28;1696;-57
2020/12/27 08:43:29;;;;;;;;;;;;;;;20.12;40.91;101383.88;5002167;28;827;-57
2020/12/27 08:45:56;;;;;;;;;;;;;;;20.95;38.91;101381.47;5001867;28;924;-44
2020/12/27 08:48:27;;;;;;;;;;;;;;;20.40;40.25;101371.31;5019015;28;1981;-46
2020/12/27 08:50:52;;;;;;;;;;;;;;;20.17;40.84;101370.88;5001532;28;944;-46
2020/12/27 08:53:18;;;;;;;;;;;;;;;19.46;42.39;101377.41;5002212;28;811;-45
2020/12/27 08:55:43;;;;;;;;;;;;;;;19.66;42.21;101360.81;5001387;28;812;-48
2020/12/27 08:58:12;;;;;;;;;;;;;;;20.71;39.64;101362.03;5019138;28;751;-48
2020/12/27 09:00:38;;;;;;;;;;;;;;;20.51;39.92;101361.84;5019238;28;521;-52
2020/12/27 09:03:04;;;;;;;;;;;;;;;20.34;40.60;101353.09;5019072;28;744;-53
2020/12/27 09:05:30;;;;;;;;;;;;;;;19.77;41.43;101347.81;5018456;28;1027;-53
2020/12/27 09:07:55;;;;;;;;;;;;;;;19.27;43.03;101346.84;5019442;28;1918;-46
2020/12/27 09:10:22;;;;;;;;;;;;;;;20.01;41.41;101349.97;5018655;28;1184;-47
2020/12/27 09:13:00;;;;;;;;;;;;;;;20.94;39.06;101347.44;5018918;28;827;-49
2020/12/27 09:15:26;;;;;;;;;;;;;;;20.60;40.06;101352.94;5019095;28;1211;-60
2020/12/27 09:18:02;;;;;;;;;;;;;;;20.30;40.63;101346.50;5018445;28;864;-45
2020/12/27 09:20:28;;;;;;;;;;;;;;;19.93;41.22;101354.13;5018890;28;952;-53
2020/12/27 09:22:53;;;;;;;;;;;;;;;19.41;42.50;101345.16;5019224;28;831;-46
2020/12/27 09:25:19;;;;;;;;;;;;;;;19.25;42.94;101346.28;5018197;28;775;-46
2020/12/27 09:27:45;;;;;;;;;;;;;;;20.31;40.87;101331.59;5000943;28;1981;-51
2020/12/27 09:30:13;;;;;;;;;;;;;;;20.74;39.63;101334.63;5018788;28;776;-46
2020/12/27 09:32:38;;;;;;;;;;;;;;;20.32;40.60;101327.72;5018045;28;867;-47
2020/12/27 09:35:03;;;;;;;;;;;;;;;20.00;41.29;101316.00;5018130;28;960;-47
2020/12/27 09:37:35;;;;;;;;;;;;;;;19.44;42.36;101314.25;5018613;28;776;-47
2020/12/27 09:40:01;;;;;;;;;;;;;;;19.96;41.41;101303.91;5017991;28;755;-50
2020/12/27 09:42:27;;;;;;;;;;;;;;;20.81;39.78;101306.66;5018789;28;799;-49
2020/12/27 09:44:53;;;;;;;;;;;;;;;20.15;41.09;101300.47;5018296;28;830;-48
2020/12/27 09:47:27;;;;;;;;;;;;;;;20.21;40.68;101293.00;5017895;28;1906;-49
2020/12/27 09:49:59;;;;;;;;;;;;;;;19.40;42.74;101296.63;5018199;28;960;-45
2020/12/27 09:52:25;;;;;;;;;;;;;;;19.55;42.71;101300.44;4998563;28;862;-49
2020/12/27 09:54:50;;;;;;;;;;;;;;;20.50;40.37;101288.34;4998186;28;855;-47
2020/12/27 09:57:19;;;;;;;;;;;;;;;20.60;39.95;101281.13;4998759;28;764;-57
2020/12/27 09:59:45;;;;;;;;;;;;;;;20.24;40.90;101279.41;4998403;28;839;-45
2020/12/27 10:02:10;;;;;;;;;;;;;;;19.90;41.28;101277.41;4998122;28;760;-45
2020/12/27 10:04:36;;;;;;;;;;;;;;;19.29;42.82;101283.97;4998660;28;779;-51
2020/12/27 10:07:01;;;;;;;;;;;;;;;20.12;41.40;101279.78;5015235;28;1988;-56
2020/12/27 10:09:27;;;;;;;;;;;;;;;20.82;39.68;101273.22;5017533;28;1105;-58
2020/12/27 10:11:52;;;;;;;;;;;;;;;20.33;40.50;101266.66;5018021;28;840;-54
2020/12/27 10:14:18;;;;;;;;;;;;;;;20.39;40.66;101269.41;5017882;28;1085;-46
2020/12/27 10:16:43;;;;;;;;;;;;;;;19.51;42.23;101263.50;5017466;28;764;-48
2020/12/27 10:19:09;;;;;;;;;;;;;;;19.79;41.84;101257.31;5017830;28;831;-48
2020/12/27 10:21:34;;;;;;;;;;;;;;;20.58;40.24;101253.78;5017379;28;960;-51
2020/12/27 10:23:59;;;;;;;;;;;;;;;20.44;40.20;101253.63;5017748;28;827;-48
2020/12/27 10:26:25;;;;;;;;;;;;;;;20.22;40.71;101256.00;5017205;28;1909;-51
2020/12/27 10:28:50;;;;;;;;;;;;;;;19.90;41.44;101254.53;5017506;28;843;-59
2020/12/27 10:31:17;;;;;;;;;;;;;;;19.36;42.70;101251.41;5017627;28;828;-55
2020/12/27 10:33:42;;;;;;;;;;;;;;;19.33;43.34;101251.97;5017118;28;832;-48
2020/12/27 10:36:08;;;;;;;;;;;;;;;20.50;40.31;101238.63;5017162;28;948;-45
2020/12/27 10:38:33;;;;;;;;;;;;;;;20.69;39.90;101224.13;5017400;28;827;-51
2020/12/27 10:40:59;;;;;;;;;;;;;;;20.16;40.92;101224.81;5017154;28;783;-57
2020/12/27 10:43:25;;;;;;;;;;;;;;;19.99;41.54;101225.19;5017429;28;788;-47
2020/12/27 10:45:56;;;;;;;;;;;;;;;19.51;42.46;101208.34;5017416;28;760;-46
2020/12/27 10:48:22;;;;;;;;;;;;;;;19.95;41.56;101219.44;5016945;28;1918;-46
2020/12/27 10:50:47;;;;;;;;;;;;;;;20.87;39.79;101207.94;5016803;28;968;-59
2020/12/27 10:53:13;;;;;;;;;;;;;;;20.54;40.30;101210.41;5017328;28;530;-46
2020/12/27 10:55:38;;;;;;;;;;;;;;;20.27;40.92;101209.00;5016821;28;812;-59
2020/12/27 10:58:03;;;;;;;;;;;;;;;19.64;42.11;101193.91;5016539;28;820;-47
2020/12/27 11:00:29;;;;;;;;;;;;;;;19.09;43.41;101191.13;5017086;28;807;-57
2020/12/27 11:02:55;;;;;;;;;;;;;;;19.92;41.68;101186.06;5016798;28;752;-46
2020/12/27 11:05:20;;;;;;;;;;;;;;;20.76;39.82;101185.94;5016291;28;1007;-54
2020/12/27 11:07:45;;;;;;;;;;;;;;;20.37;40.41;101181.31;5017023;28;1914;-47
2020/12/27 11:10:11;;;;;;;;;;;;;;;20.05;41.26;101190.94;5016515;28;1116;-58
2020/12/27 11:12:36;;;;;;;;;;;;;;;19.54;42.40;101183.75;5016736;28;866;-47
2020/12/27 11:15:02;;;;;;;;;;;;;;;19.02;43.72;101191.41;5016748;28;1203;-55
2020/12/27 11:17:27;;;;;;;;;;;;;;;20.10;41.65;101182.59;5016470;28;804;-47
2020/12/27 11:19:53;;;;;;;;;;;;;;;20.97;39.45;101182.94;5016437;28;956;-46
2020/12/27 11:22:18;;;;;;;;;;;;;;;20.19;41.20;101171.78;5016807;28;799;-46
2020/12/27 11:24:43;;;;;;;;;;;;;;;20.08;41.48;101167.47;4998737;28;1395;-45
2020/12/27 11:27:09;;;;;;;;;;;;;;;19.71;42.06;101169.59;5016510;28;1902;-59
2020/12/27 11:29:34;;;;;;;;;;;;;;;19.36;42.80;101179.69;5016776;28;800;-46
2020/12/27 11:32:00;;;;;;;;;;;;;;;19.67;42.61;101177.63;5016584;28;792;-59
2020/12/27 11:34:25;;;;;;;;;;;;;;;20.57;40.44;101173.94;5016627;28;819;-47
2020/12/27 11:36:51;;;;;;;;;;;;;;;20.49;40.59;101167.91;5016323;28;952;-55
2020/12/27 11:39:16;;;;;;;;;;;;;;;20.28;40.78;101145.19;5016428;28;785;-46
2020/12/27 11:41:41;;;;;;;;;;;;;;;19.75;42.09;101142.25;5016715;28;874;-54
2020/12/27 11:44:07;;;;;;;;;;;;;;;19.34;42.97;101137.81;5016604;28;735;-51
2020/12/27 11:46:33;;;;;;;;;;;;;;;20.11;41.29;101142.84;5016094;28;1910;-51
2020/12/27 11:48:59;;;;;;;;;;;;;;;20.87;39.87;101150.72;5016738;28;858;-55
2020/12/27 11:51:24;;;;;;;;;;;;;;;20.42;40.55;101139.81;5016210;28;953;-47
2020/12/27 11:53:50;;;;;;;;;;;;;;;20.17;41.11;101135.34;5016414;28;719;-48
2020/12/27 11:56:16;;;;;;;;;;;;;;;19.58;42.48;101131.63;5016535;28;756;-48
2020/12/27 11:58:42;;;;;;;;;;;;;;;19.24;43.47;101129.59;5014718;28;893;-52
2020/12/27 12:01:10;;;;;;;;;;;;;;;20.20;41.15;101131.19;5015807;28;822;-56
2020/12/27 12:03:35;;;;;;;;;;;;;;;20.70;40.03;101136.53;4998348;28;875;-49
2020/12/27 12:06:01;;;;;;;;;;;;;;;20.13;41.31;101124.06;5013796;28;874;-50
2020/12/27 12:08:26;;;;;;;;;;;;;;;20.02;41.36;101130.78;5015655;28;1979;-46
2020/12/27 12:10:53;;;;;;;;;;;;;;;19.49;42.58;101118.44;5019337;28;1137;-55
2020/12/27 12:13:18;;;;;;;;;;;;;;;19.09;44.07;101120.28;5020164;28;795;-59
2020/12/27 12:15:43;;;;;;;;;;;;;;;20.26;40.98;101108.78;5019456;28;1041;-50
2020/12/27 12:18:09;;;;;;;;;;;;;;;20.67;39.90;101102.84;5017950;28;887;-51
2020/12/27 12:20:45;;;;;;;;;;;;;;;20.26;40.96;101103.25;5014053;28;1204;-58
2020/12/27 12:23:11;;;;;;;;;;;;;;;19.86;42.05;101105.22;5017800;28;1065;-47
2020/12/27 12:25:39;;;;;;;;;;;;;;;19.49;42.63;101123.13;5011355;28;1080;-59
2020/12/27 12:28:04;;;;;;;;;;;;;;;20.33;41.22;101119.47;5011175;28;1906;-58
2020/12/27 12:30:32;;;;;;;;;;;;;;;20.80;39.86;101123.44;4990960;28;1231;-49
2020/12/27 12:32:57;;;;;;;;;;;;;;;20.33;41.06;101117.53;5010194;28;1193;-51
2020/12/27 12:35:22;;;;;;;;;;;;;;;20.11;41.21;101112.47;5018472;28;897;-51
2020/12/27 12:37:48;;;;;;;;;;;;;;;19.40;42.61;101111.03;5018663;28;898;-58
2020/12/27 12:40:13;;;;;;;;;;;;;;;20.06;41.62;101114.47;5018790;28;855;-49
2020/12/27 12:42:39;;;;;;;;;;;;;;;20.92;39.98;101113.91;5019211;28;1072;-53
2020/12/27 12:45:05;;;;;;;;;;;;;;;20.44;40.84;101106.38;5018198;28;1112;-54
2020/12/27 12:47:31;;;;;;;;;;;;;;;20.24;41.17;101099.94;5018804;28;1914;-48
2020/12/27 12:49:56;;;;;;;;;;;;;;;19.77;42.23;101085.69;5011585;28;1135;-52
2020/12/27 12:52:21;;;;;;;;;;;;;;;19.52;42.98;101078.41;5017167;28;980;-47
2020/12/27 12:54:47;;;;;;;;;;;;;;;20.67;40.38;101082.66;5018330;28;1081;-47
2020/12/27 12:57:12;;;;;;;;;;;;;;;20.75;40.08;101070.97;5017678;28;1108;-54
2020/12/27 12:59:38;;;;;;;;;;;;;;;20.34;41.01;101068.63;5013109;28;1087;-48
2020/12/27 13:02:03;;;;;;;;;;;;;;;20.14;41.36;101062.19;5018988;28;1071;-52
2020/12/27 13:04:28;;;;;;;;;;;;;;;19.43;42.86;101069.94;5019191;28;764;-49
2020/12/27 13:06:54;;;;;;;;;;;;;;;19.87;42.17;101067.44;5018786;28;1977;-49
2020/12/27 13:09:19;;;;;;;;;;;;;;;20.94;39.93;101067.44;5019272;28;1117;-59
2020/12/27 13:11:45;;;;;;;;;;;;;;;21.39;38.96;101067.09;5016968;28;856;-54
2020/12/27 13:14:10;;;;;;;;;;;;;;;21.05;39.66;101059.84;5005999;28;1309;-59
2020/12/27 13:16:41;;;;;;;;;;;;;;;20.58;40.61;101070.59;5018622;28;752;-50
2020/12/27 13:19:06;;;;;;;;;;;;;;;20.18;41.44;101065.22;5019081;28;787;-51
2020/12/27 13:21:32;;;;;;;;;;;;;;;19.34;42.99;101071.63;5018633;28;1019;-58
2020/12/27 13:23:57;;;;;;;;;;;;;;;19.79;42.86;101068.84;5001542;28;864;-54
2020/12/27 13:26:23;;;;;;;;;;;;;;;20.83;40.28;101056.53;4999274;28;749;-58
2020/12/27 13:28:48;;;;;;;;;;;;;;;20.27;41.35;101041.38;4999198;28;1973;-55
2020/12/27 13:31:14;;;;;;;;;;;;;;;20.05;41.84;101047.41;4998763;28;832;-58
2020/12/27 13:33:39;;;;;;;;;;;;;;;19.60;42.75;101039.19;4998851;28;829;-54
2020/12/27 13:36:04;;;;;;;;;;;;;;;19.16;43.96;101037.28;5008852;28;957;-52
2020/12/27 13:38:30;;;;;;;;;;;;;;;20.48;41.04;101044.75;5018134;28;851;-50
2020/12/27 13:40:55;;;;;;;;;;;;;;;20.82;39.83;101040.22;5018269;28;842;-54
2020/12/27 13:43:21;;;;;;;;;;;;;;;20.39;41.26;101049.25;5018304;28;830;-59
2020/12/27 13:45:46;;;;;;;;;;;;;;;19.94;42.27;101051.38;5018032;28;784;-54
2020/12/27 13:48:11;;;;;;;;;;;;;;;19.31;43.07;101047.41;5018239;28;1959;-57
2020/12/27 13:50:37;;;;;;;;;;;;;;;19.99;42.03;101043.88;5018246;28;965;-60
2020/12/27 13:53:02;;;;;;;;;;;;;;;20.97;40.01;101041.94;5017802;28;1037;-59
2020/12/27 13:55:28;;;;;;;;;;;;;;;20.86;40.06;101041.28;5018233;28;765;-50
2020/12/27 13:57:53;;;;;;;;;;;;;;;20.50;40.83;101027.88;5018825;28;783;-55
2020/12/27 14:00:18;;;;;;;;;;;;;;;19.96;42.08;101029.81;5017581;28;807;-53
2020/12/27 14:02:44;;;;;;;;;;;;;;;19.12;43.76;101030.69;5017929;28;823;-55
2020/12/27 14:05:09;;;;;;;;;;;;;;;20.17;41.70;101028.50;5017612;28;1089;-55
2020/12/27 14:07:35;;;;;;;;;;;;;;;21.05;39.67;101029.44;5017629;28;1973;-48
2020/12/27 14:10:00;;;;;;;;;;;;;;;20.48;40.86;101021.81;5018027;28;1109;-53
2020/12/27 14:12:26;;;;;;;;;;;;;;;20.02;41.95;101017.63;5018216;28;811;-55
2020/12/27 14:14:51;;;;;;;;;;;;;;;19.31;43.23;101028.91;5017155;28;1264;-59
2020/12/27 14:17:17;;;;;;;;;;;;;;;19.73;42.87;101029.44;5017883;28;808;-55
2020/12/27 14:19:42;;;;;;;;;;;;;;;20.72;40.48;101021.84;5018182;28;784;-56
2020/12/27 14:22:08;;;;;;;;;;;;;;;20.43;41.03;101011.66;5016753;28;948;-51
2020/12/27 14:24:33;;;;;;;;;;;;;;;20.12;41.60;101009.22;5017757;28;784;-54
2020/12/27 14:26:58;;;;;;;;;;;;;;;19.78;42.33;100988.00;5017662;28;1910;-55
2020/12/27 14:29:24;;;;;;;;;;;;;;;18.90;44.48;100981.47;5017118;28;866;-56
2020/12/27 14:31:49;;;;;;;;;;;;;;;20.24;41.51;100986.72;5017042;28;836;-57
2020/12/27 14:34:15;;;;;;;;;;;;;;;20.94;39.85;100990.03;5017278;28;761;-48
2020/12/27 14:36:41;;;;;;;;;;;;;;;20.40;40.99;100979.09;5016690;28;952;-56
2020/12/27 14:39:07;;;;;;;;;;;;;;;20.18;41.67;100979.63;5017551;28;792;-48
2020/12/27 14:41:32;;;;;;;;;;;;;;;19.41;43.04;100989.41;5017355;28;852;-57
2020/12/27 14:43:58;;;;;;;;;;;;;;;19.79;42.61;100995.19;5017180;28;780;-48
2020/12/27 14:46:23;;;;;;;;;;;;;;;20.74;40.58;100996.66;5017352;28;812;-54
2020/12/27 14:48:49;;;;;;;;;;;;;;;20.44;41.28;100990.38;5017186;28;1910;-52
2020/12/27 14:51:14;;;;;;;;;;;;;;;20.09;42.03;100998.78;5016346;28;1027;-50
2020/12/27 14:53:40;;;;;;;;;;;;;;;19.58;42.87;100989.00;5017239;28;807;-51
2020/12/27 14:56:05;;;;;;;;;;;;;;;19.51;43.32;100987.69;5017213;28;733;-53
2020/12/27 14:58:31;;;;;;;;;;;;;;;20.58;41.14;100994.06;5016836;28;780;-51
2020/12/27 15:00:56;;;;;;;;;;;;;;;20.41;41.20;100991.81;5017223;28;756;-54
2020/12/27 15:03:22;;;;;;;;;;;;;;;20.40;41.47;100998.44;5016790;28;812;-63
2020/12/27 15:05:49;;;;;;;;;;;;;;;19.74;42.50;100992.47;5016196;28;964;-57
2020/12/27 15:08:14;;;;;;;;;;;;;;;19.21;44.21;100990.41;5016921;28;1985;-53
2020/12/27 15:10:39;;;;;;;;;;;;;;;20.39;41.33;100995.97;5016722;28;1129;-54
2020/12/27 15:13:05;;;;;;;;;;;;;;;20.87;40.35;100992.34;5016500;28;812;-49
2020/12/27 15:15:30;;;;;;;;;;;;;;;20.37;41.50;100995.41;5017050;28;1092;-53
2020/12/27 15:17:56;;;;;;;;;;;;;;;19.88;42.19;100976.09;5016785;28;745;-54
2020/12/27 15:20:22;;;;;;;;;;;;;;;19.18;43.71;100984.63;5015890;28;1031;-59
2020/12/27 15:22:48;;;;;;;;;;;;;;;20.14;41.96;100984.91;4999575;28;1135;-54
2020/12/27 15:25:13;;;;;;;;;;;;;;;20.99;40.16;100987.22;5016499;28;860;-55
2020/12/27 15:27:39;;;;;;;;;;;;;;;20.50;41.10;100986.44;5016425;28;1972;-53
2020/12/27 15:30:04;;;;;;;;;;;;;;;20.14;41.85;100976.63;5016663;28;787;-58
2020/12/27 15:32:30;;;;;;;;;;;;;;;19.79;42.46;100980.53;5016665;28;826;-59
2020/12/27 15:34:55;;;;;;;;;;;;;;;19.51;43.60;100993.22;5016283;28;1027;-48
2020/12/27 15:37:21;;;;;;;;;;;;;;;20.52;41.29;100990.56;5016658;28;799;-53
2020/12/27 15:39:46;;;;;;;;;;;;;;;20.50;41.06;100980.91;5016530;28;831;-54
2020/12/27 15:42:11;;;;;;;;;;;;;;;20.08;42.06;100980.56;5016660;28;736;-50
2020/12/27 15:44:37;;;;;;;;;;;;;;;19.82;42.42;100982.75;5019230;28;763;-60
2020/12/27 15:47:02;;;;;;;;;;;;;;;19.10;44.82;100989.63;5002988;28;1985;-58
2020/12/27 15:49:28;;;;;;;;;;;;;;;20.22;41.92;100986.22;5021065;28;558;-54
2020/12/27 15:51:54;;;;;;;;;;;;;;;21.03;40.10;100982.72;5019667;28;944;-59
2020/12/27 15:54:19;;;;;;;;;;;;;;;20.58;40.96;100973.91;5018115;28;869;-58
2020/12/27 15:56:45;;;;;;;;;;;;;;;20.26;41.59;100970.69;5020511;28;756;-51
2020/12/27 15:59:10;;;;;;;;;;;;;;;19.54;43.09;100967.81;5020247;28;819;-49
2020/12/27 16:01:36;;;;;;;;;;;;;;;19.56;43.42;100968.31;5020268;28;877;-59
2020/12/27 16:04:01;;;;;;;;;;;;;;;20.70;40.87;100954.97;5020275;28;808;-49
2020/12/27 16:06:27;;;;;;;;;;;;;;;20.78;40.30;100954.31;5019398;28;996;-60
2020/12/27 16:08:52;;;;;;;;;;;;;;;20.33;41.56;100962.06;5020478;28;1906;-59
2020/12/27 16:11:36;;;;;;;;;;;;;;;19.88;42.44;100948.47;5020543;28;803;-60
2020/12/27 16:14:01;;;;;;;;;;;;;;;19.71;43.31;100953.56;5019476;28;968;-55
2020/12/27 16:16:27;;;;;;;;;;;;;;;20.79;40.65;100960.66;5017723;28;959;-59
2020/12/27 16:18:52;;;;;;;;;;;;;;;20.51;41.08;100960.47;5019796;28;893;-59
2020/12/27 16:21:18;;;;;;;;;;;;;;;20.03;42.16;100966.00;5019330;28;1044;-49
2020/12/27 16:23:44;;;;;;;;;;;;;;;19.79;42.88;100964.84;5020033;28;893;-51
2020/12/27 16:26:09;;;;;;;;;;;;;;;19.33;43.75;100970.72;5019581;28;875;-59
2020/12/27 16:28:35;;;;;;;;;;;;;;;20.36;41.71;100975.28;5019401;28;1979;-47
2020/12/27 16:31:00;;;;;;;;;;;;;;;20.98;40.38;100963.44;5002466;28;1332;-49
2020/12/27 16:33:26;;;;;;;;;;;;;;;20.33;41.48;100968.41;5019673;28;823;-58
2020/12/27 16:35:51;;;;;;;;;;;;;;;20.16;42.06;100965.28;5019299;28;956;-58
2020/12/27 16:38:16;;;;;;;;;;;;;;;19.82;42.65;100955.16;5019833;28;864;-59
2020/12/27 16:40:45;;;;;;;;;;;;;;;19.73;43.30;100951.38;5019543;28;820;-58
2020/12/27 16:43:10;;;;;;;;;;;;;;;20.78;40.84;100943.25;5019353;28;851;-62
2020/12/27 16:45:36;;;;;;;;;;;;;;;20.39;41.59;100941.53;5019769;28;749;-61
2020/12/27 16:48:01;;;;;;;;;;;;;;;20.32;41.78;100939.13;5019394;28;1917;-60
2020/12/27 16:50:27;;;;;;;;;;;;;;;19.62;43.03;100945.94;5019092;28;956;-54
2020/12/27 16:52:53;;;;;;;;;;;;;;;19.60;43.38;100944.56;5016970;28;942;-60
2020/12/27 16:55:18;;;;;;;;;;;;;;;20.58;41.20;100943.50;5018189;28;810;-60
2020/12/27 16:57:43;;;;;;;;;;;;;;;20.78;40.65;100943.25;5016934;28;854;-51
2020/12/27 17:00:09;;;;;;;;;;;;;;;20.37;41.49;100948.47;5018923;28;818;-57
2020/12/27 17:02:35;;;;;;;;;;;;;;;19.98;42.25;100936.50;5019220;28;772;-59
2020/12/27 17:05:00;;;;;;;;;;;;;;;19.31;43.58;100928.84;5018326;28;952;-51
2020/12/27 17:07:25;;;;;;;;;;;;;;;20.22;42.14;100925.47;5018964;28;1914;-53
2020/12/27 17:09:51;;;;;;;;;;;;;;;20.89;40.50;100921.84;5018968;28;1180;-51
2020/12/27 17:12:16;;;;;;;;;;;;;;;20.44;41.33;100927.69;5018725;28;792;-50
2020/12/27 17:14:42;;;;;;;;;;;;;;;20.18;42.12;100924.41;5001123;28;1173;-47